Time;durP1;ratioP1;P1;durP2;ratioP2;P2;SDS_P1;SDS_P2;PMS_P1;PMS_P2;Temp;Humidity;BMP_temperature;BMP_pressure;BME280_temperature;BME280_humidity;BME280_pressure;Samples;Min_cycle;Max_cycle;Signal;HPM_P1;HPM_P2
2022/12/02 00:00:27;;;;;;;24.20;11.55;;;;;;;4.24;nan;101194.16;5151797;27;20105;-68
2022/12/02 00:02:57;;;;;;;22.98;11.30;;;;;;;4.29;nan;101200.69;5128421;27;20030;-67
2022/12/02 00:05:33;;;;;;;24.25;11.23;;;;;;;4.28;nan;101202.44;5149147;27;20065;-68
2022/12/02 00:08:15;;;;;;;24.45;11.13;;;;;;;4.20;nan;101187.63;5133679;27;20083;-67
2022/12/02 00:10:43;;;;;;;25.80;11.88;;;;;;;4.27;nan;101203.44;5148008;27;20027;-68
2022/12/02 00:13:26;;;;;;;24.13;11.55;;;;;;;4.26;nan;101205.22;5149013;27;20039;-68
2022/12/02 00:15:56;;;;;;;24.27;10.43;;;;;;;4.22;nan;101192.69;5129654;27;20031;-68
2022/12/02 00:18:22;;;;;;;22.90;10.88;;;;;;;4.26;nan;101201.78;5151920;27;20026;-67
2022/12/02 00:20:48;;;;;;;23.33;11.45;;;;;;;4.30;nan;101210.13;5128176;27;20026;-67
2022/12/02 00:23:14;;;;;;;25.95;11.05;;;;;;;4.20;nan;101190.22;5133775;27;20023;-68
2022/12/02 00:25:43;;;;;;;22.10;10.43;;;;;;;4.25;nan;101200.97;5129140;27;20093;-68
2022/12/02 00:28:08;;;;;;;18.83;9.32;;;;;;;4.26;nan;101196.56;5130666;27;20383;-67
2022/12/02 00:30:34;;;;;;;18.77;9.32;;;;;;;4.27;nan;101206.03;5129384;27;20042;-67
2022/12/02 00:32:59;;;;;;;19.23;9.55;;;;;;;4.28;nan;101212.06;5151850;27;20026;-67
2022/12/02 00:35:25;;;;;;;23.65;10.40;;;;;;;4.19;nan;101188.63;5122027;27;20760;-67
2022/12/02 00:37:50;;;;;;;18.88;9.50;;;;;;;4.26;nan;101204.41;5150681;27;20055;-68
2022/12/02 00:40:16;;;;;;;20.35;10.07;;;;;;;4.21;nan;101199.69;5147513;27;20033;-68
2022/12/02 00:42:42;;;;;;;21.05;10.25;;;;;;;4.23;nan;101194.31;5126532;27;20022;-68
2022/12/02 00:47:54;;;;;;;20.65;9.93;;;;;;;4.19;nan;101187.78;5149791;27;20493;-67
2022/12/02 00:50:20;;;;;;;20.35;10.27;;;;;;;4.29;nan;101206.69;5149395;27;20030;-67
2022/12/02 00:52:45;;;;;;;24.98;10.57;;;;;;;4.22;nan;101185.66;5150924;27;20026;-68
2022/12/02 00:55:10;;;;;;;28.25;11.77;;;;;;;4.22;nan;101185.66;5147716;27;20021;-67
2022/12/02 00:57:36;;;;;;;25.70;12.13;;;;;;;4.30;nan;101197.88;5127190;27;20022;-67
2022/12/02 01:00:01;;;;;;;26.05;11.60;;;;;;;4.29;nan;101198.06;5131324;27;20015;-68
2022/12/02 01:02:26;;;;;;;23.80;11.82;;;;;;;4.20;nan;101176.38;5143210;27;20047;-67
2022/12/02 01:04:52;;;;;;;26.42;11.02;;;;;;;4.14;nan;101174.44;5128007;27;20018;-67
2022/12/02 01:07:17;;;;;;;22.17;9.82;;;;;;;4.17;nan;101177.53;5130931;27;20023;-68
2022/12/02 01:09:42;;;;;;;24.27;10.57;;;;;;;4.22;nan;101188.28;5150519;27;20018;-67
2022/12/02 01:12:08;;;;;;;21.13;10.30;;;;;;;4.23;nan;101189.09;5149023;27;20102;-68
2022/12/02 01:14:33;;;;;;;20.30;9.98;;;;;;;4.18;nan;101178.34;5151060;27;20029;-67
2022/12/02 01:16:58;;;;;;;21.45;10.70;;;;;;;4.23;nan;101184.69;5151291;27;20023;-67
2022/12/02 01:19:24;;;;;;;22.33;10.52;;;;;;;4.26;nan;101183.53;5131337;27;20023;-68
2022/12/02 01:21:49;;;;;;;22.17;11.40;;;;;;;4.25;nan;101187.13;5149365;27;20026;-67
2022/12/02 01:24:15;;;;;;;19.85;10.25;;;;;;;4.14;nan;101179.63;5132446;27;20163;-68
2022/12/02 01:26:40;;;;;;;26.52;11.75;;;;;;;4.25;nan;101189.75;5148939;27;20582;-68
2022/12/02 01:29:06;;;;;;;24.73;11.23;;;;;;;4.23;nan;101183.88;5147646;27;20139;-68
2022/12/02 01:31:32;;;;;;;23.00;10.65;;;;;;;4.16;nan;101168.06;5130305;27;20106;-67
2022/12/02 01:33:57;;;;;;;23.10;10.73;;;;;;;4.23;nan;101184.69;5150912;27;20068;-67
2022/12/02 01:36:22;;;;;;;24.00;11.25;;;;;;;4.22;nan;101184.88;5146961;27;20054;-67
2022/12/02 01:38:48;;;;;;;23.73;12.55;;;;;;;4.13;nan;101176.22;5149829;27;20422;-67
2022/12/02 01:41:13;;;;;;;22.88;11.73;;;;;;;4.13;nan;101183.22;5128563;27;20490;-67
2022/12/02 01:43:38;;;;;;;24.83;12.23;;;;;;;4.12;nan;101181.59;5151196;27;20093;-68
2022/12/02 01:46:04;;;;;;;23.92;12.10;;;;;;;3.90;nan;101152.59;5148171;27;20499;-67
2022/12/02 01:48:30;;;;;;;24.88;11.55;;;;;;;4.09;nan;101176.72;5150248;27;20101;-68
2022/12/02 01:50:56;;;;;;;23.33;11.93;;;;;;;4.11;nan;101183.38;5145637;27;20782;-67
2022/12/02 01:53:22;;;;;;;27.58;13.40;;;;;;;3.99;nan;101169.88;5130409;27;20483;-67
2022/12/02 01:55:47;;;;;;;28.98;14.27;;;;;;;3.98;nan;101167.44;5148684;27;20075;-68
2022/12/02 01:58:14;;;;;;;26.27;12.75;;;;;;;3.97;nan;101169.19;5149950;27;20026;-68
2022/12/02 02:00:39;;;;;;;26.58;13.65;;;;;;;4.02;nan;101169.56;5146367;27;20444;-67
2022/12/02 02:03:05;;;;;;;28.15;14.60;;;;;;;3.92;nan;101165.47;5148040;27;20167;-66
2022/12/02 02:05:32;;;;;;;28.55;12.98;;;;;;;4.00;nan;101168.09;5148286;27;20019;-67
2022/12/02 02:08:05;;;;;;;28.55;14.43;;;;;;;3.99;nan;101177.69;5150352;27;20019;-66
2022/12/02 02:10:32;;;;;;;28.48;14.25;;;;;;;3.88;nan;101157.19;5128983;27;20383;-67
2022/12/02 02:12:57;;;;;;;29.08;13.80;;;;;;;3.93;nan;101164.50;5150704;27;20042;-67
2022/12/02 02:15:23;;;;;;;28.35;14.50;;;;;;;3.87;nan;101160.75;5150878;27;20049;-67
2022/12/02 02:17:49;;;;;;;32.00;14.88;;;;;;;3.89;nan;101155.38;5148077;27;20064;-66
2022/12/02 02:20:20;;;;;;;30.50;16.27;;;;;;;3.93;nan;101172.31;5154872;27;20033;-67
2022/12/02 02:22:57;;;;;;;33.95;15.52;;;;;;;3.96;nan;101172.00;5154026;27;20018;-67
2022/12/02 02:25:23;;;;;;;32.58;16.73;;;;;;;3.88;nan;101165.00;5151061;27;20067;-67
2022/12/02 02:27:55;;;;;;;29.65;15.02;;;;;;;3.88;nan;101164.16;5151023;27;20094;-67
2022/12/02 02:30:21;;;;;;;32.60;16.17;;;;;;;3.85;nan;101167.91;5130400;27;20083;-68
2022/12/02 02:32:48;;;;;;;37.45;17.73;;;;;;;3.86;nan;101176.56;5149873;27;20042;-67
2022/12/02 02:35:14;;;;;;;39.40;18.02;;;;;;;3.85;nan;101173.09;5154009;27;20022;-67
2022/12/02 02:37:39;;;;;;;35.47;17.45;;;;;;;3.84;nan;101168.88;5132301;27;20361;-67
2022/12/02 02:40:06;;;;;;;36.22;18.05;;;;;;;3.78;nan;101165.16;5151840;27;20053;-68
2022/12/02 02:42:32;;;;;;;37.13;18.52;;;;;;;3.78;nan;101159.94;5152517;27;20022;-68
2022/12/02 02:44:59;;;;;;;36.88;18.15;;;;;;;3.78;nan;101165.16;5150778;27;20027;-68
2022/12/02 02:47:24;;;;;;;40.63;18.55;;;;;;;3.83;nan;101169.84;5147809;27;20469;-68
2022/12/02 02:49:50;;;;;;;40.15;19.50;;;;;;;3.83;nan;101178.50;5131821;27;20030;-67
2022/12/02 02:52:16;;;;;;;40.65;19.58;;;;;;;3.81;nan;101175.25;5153906;27;20029;-67
2022/12/02 02:54:41;;;;;;;40.83;21.02;;;;;;;3.82;nan;101176.03;5153194;27;20019;-68
2022/12/02 02:57:08;;;;;;;41.35;20.88;;;;;;;3.83;nan;101182.88;5151235;27;20032;-67
2022/12/02 02:59:34;;;;;;;46.00;22.05;;;;;;;3.78;nan;101172.97;5148641;27;20027;-68
2022/12/02 03:02:06;;;;;;;44.10;22.05;;;;;;;3.64;nan;101147.53;5148134;27;20029;-68
2022/12/02 03:04:32;;;;;;;44.78;21.83;;;;;;;3.74;nan;101169.03;5133220;27;20027;-68
2022/12/02 03:06:57;;;;;;;42.22;21.35;;;;;;;3.80;nan;101170.19;5154308;27;20015;-67
2022/12/02 03:09:23;;;;;;;47.75;24.17;;;;;;;3.77;nan;101166.09;5146773;27;20021;-67
2022/12/02 03:11:51;;;;;;;46.67;22.20;;;;;;;3.80;nan;101171.00;5150288;27;20079;-68
2022/12/02 03:14:19;;;;;;;42.38;22.23;;;;;;;3.76;nan;101163.66;5150045;27;20035;-68
2022/12/02 03:16:45;;;;;;;46.28;22.55;;;;;;;3.78;nan;101174.72;5153107;27;20034;-68
2022/12/02 03:19:11;;;;;;;44.95;22.50;;;;;;;3.74;nan;101166.44;5130408;27;20417;-68
2022/12/02 03:21:37;;;;;;;41.72;21.67;;;;;;;3.77;nan;101167.91;5153556;27;20083;-68
2022/12/02 03:24:04;;;;;;;42.78;21.75;;;;;;;3.76;nan;101168.88;5152805;27;20026;-68
2022/12/02 03:26:30;;;;;;;42.08;21.70;;;;;;;3.73;nan;101170.00;5153378;27;20097;-68
2022/12/02 03:28:56;;;;;;;45.10;22.23;;;;;;;3.75;nan;101168.06;5130365;27;20110;-67
2022/12/02 03:31:22;;;;;;;43.05;21.88;;;;;;;3.66;nan;101160.38;5148332;27;20029;-68
2022/12/02 03:33:49;;;;;;;48.75;22.25;;;;;;;3.67;nan;101152.44;5133617;27;20069;-68
2022/12/02 03:36:15;;;;;;;42.67;22.30;;;;;;;3.73;nan;101156.97;5151745;27;20029;-68
2022/12/02 03:38:41;;;;;;;42.88;22.02;;;;;;;3.68;nan;101148.03;5153318;27;20022;-67
2022/12/02 03:41:07;;;;;;;48.85;23.17;;;;;;;3.69;nan;101149.66;5152070;27;20514;-68
2022/12/02 03:43:33;;;;;;;52.42;24.67;;;;;;;3.70;nan;101157.31;5152982;27;20018;-68
2022/12/02 03:45:59;;;;;;;54.17;26.55;;;;;;;3.72;nan;101157.97;5151412;27;20030;-68
2022/12/02 03:48:25;;;;;;;61.45;29.63;;;;;;;3.66;nan;101142.16;5149101;27;20672;-68
2022/12/02 03:50:52;;;;;;;55.03;27.23;;;;;;;3.76;nan;101156.69;5153310;27;20022;-68
2022/12/02 03:53:19;;;;;;;50.22;25.50;;;;;;;3.69;nan;101153.09;5148169;27;20018;-68
2022/12/02 03:55:45;;;;;;;44.67;22.50;;;;;;;3.65;nan;101143.97;5130529;27;20195;-68
2022/12/02 03:58:10;;;;;;;47.03;22.70;;;;;;;3.72;nan;101154.56;5145236;27;20361;-68
2022/12/02 04:00:36;;;;;;;47.00;23.35;;;;;;;3.72;nan;101155.34;5150621;27;20035;-68
2022/12/02 04:03:03;;;;;;;43.78;21.17;;;;;;;3.69;nan;101157.47;5147644;27;20027;-68
2022/12/02 04:05:28;;;;;;;48.15;22.98;;;;;;;3.70;nan;101152.09;5147789;27;20011;-69
2022/12/02 04:07:53;;;;;;;50.50;21.65;;;;;;;3.71;nan;101151.13;5151190;27;20026;-68
2022/12/02 04:10:19;;;;;;;43.67;20.70;;;;;;;3.75;nan;101154.22;5149531;27;20018;-68
2022/12/02 04:12:44;;;;;;;40.60;20.85;;;;;;;3.70;nan;101146.88;5131307;27;20046;-68
2022/12/02 04:15:10;;;;;;;41.10;20.55;;;;;;;3.72;nan;101147.53;5148569;27;20650;-68
2022/12/02 04:17:35;;;;;;;38.47;19.23;;;;;;;3.72;nan;101150.16;5147981;27;20075;-68
2022/12/02 04:20:03;;;;;;;40.72;19.80;;;;;;;3.78;nan;101159.09;5150194;27;20472;-67
2022/12/02 04:22:29;;;;;;;35.85;19.20;;;;;;;3.73;nan;101146.56;5152089;27;20069;-68
2022/12/02 04:24:57;;;;;;;38.88;20.02;;;;;;;3.80;nan;101154.53;5148526;27;20022;-68
2022/12/02 04:27:23;;;;;;;39.75;20.92;;;;;;;3.79;nan;101156.34;5150175;27;20054;-68
2022/12/02 04:29:48;;;;;;;41.50;20.25;;;;;;;3.81;nan;101158.81;5149865;27;20049;-68
2022/12/02 04:32:13;;;;;;;43.97;21.15;;;;;;;3.84;nan;101163.69;5134235;27;20061;-68
2022/12/02 04:34:39;;;;;;;40.55;20.65;;;;;;;3.60;nan;101131.41;5143204;27;20031;-68
2022/12/02 04:37:04;;;;;;;40.15;20.35;;;;;;;3.83;nan;101165.47;5148759;27;20019;-68
2022/12/02 04:39:29;;;;;;;40.45;20.13;;;;;;;3.82;nan;101155.19;5151666;27;20068;-68
2022/12/02 04:41:55;;;;;;;40.17;19.75;;;;;;;3.77;nan;101152.28;5149066;27;20025;-68
2022/12/02 04:44:20;;;;;;;42.22;20.25;;;;;;;3.82;nan;101166.44;5149292;27;20034;-68
2022/12/02 04:46:45;;;;;;;41.05;20.45;;;;;;;3.81;nan;101164.00;5149318;27;20065;-68
2022/12/02 04:49:11;;;;;;;39.42;19.73;;;;;;;3.76;nan;101163.66;5151943;27;20022;-68
2022/12/02 04:51:36;;;;;;;40.55;20.10;;;;;;;3.75;nan;101157.63;5114818;27;20383;-68
2022/12/02 04:54:01;;;;;;;40.30;19.67;;;;;;;3.78;nan;101169.53;5146835;27;20045;-68
2022/12/02 04:56:27;;;;;;;38.78;19.05;;;;;;;3.75;nan;101162.03;5149242;27;20030;-69
2022/12/02 04:58:52;;;;;;;39.42;20.10;;;;;;;3.79;nan;101169.38;5151216;27;20014;-67
2022/12/02 05:01:18;;;;;;;40.58;20.77;;;;;;;3.76;nan;101167.09;5147406;27;20553;-69
2022/12/02 05:03:43;;;;;;;41.05;20.13;;;;;;;3.82;nan;101176.03;5148190;27;20019;-69
2022/12/02 05:06:09;;;;;;;39.72;19.17;;;;;;;3.75;nan;101157.63;5147207;27;20027;-69
2022/12/02 05:08:34;;;;;;;39.05;19.88;;;;;;;3.81;nan;101172.63;5147535;27;20026;-68
2022/12/02 05:11:00;;;;;;;41.38;19.38;;;;;;;3.78;nan;101159.09;5150824;27;20069;-69
2022/12/02 05:13:25;;;;;;;38.22;19.52;;;;;;;3.77;nan;101157.47;5129139;27;20054;-68
2022/12/02 05:15:50;;;;;;;41.60;19.63;;;;;;;3.84;nan;101163.69;5150621;27;20054;-68
2022/12/02 05:18:16;;;;;;;41.35;21.00;;;;;;;3.85;nan;101165.28;5148262;27;20083;-68
2022/12/02 05:20:41;;;;;;;41.65;20.30;;;;;;;3.81;nan;101159.59;5128172;27;20041;-68
2022/12/02 05:23:08;;;;;;;39.47;20.20;;;;;;;3.77;nan;101167.91;5126743;27;20103;-68
2022/12/02 05:25:34;;;;;;;40.35;19.88;;;;;;;3.81;nan;101179.63;5129606;27;20011;-69
2022/12/02 05:27:59;;;;;;;36.08;17.85;;;;;;;3.82;nan;101176.03;5151072;27;20026;-69
2022/12/02 05:30:24;;;;;;;39.33;18.40;;;;;;;3.80;nan;101167.56;5130818;27;20066;-69
2022/12/02 05:32:50;;;;;;;40.40;18.02;;;;;;;3.83;nan;101173.28;5126334;27;20494;-69
2022/12/02 05:35:15;;;;;;;39.78;18.48;;;;;;;3.85;nan;101165.28;5149442;27;20022;-68
2022/12/02 05:37:40;;;;;;;37.42;17.92;;;;;;;3.88;nan;101175.41;5127188;27;20026;-69
2022/12/02 05:40:07;;;;;;;39.95;18.58;;;;;;;3.85;nan;101162.69;5150145;27;20023;-69
2022/12/02 05:42:33;;;;;;;36.38;19.10;;;;;;;3.89;nan;101165.81;5147152;27;20030;-68
2022/12/02 05:44:59;;;;;;;43.55;20.15;;;;;;;3.91;nan;101159.44;5150008;27;20014;-69
2022/12/02 05:47:28;;;;;;;41.60;19.05;;;;;;;3.82;nan;101150.81;5150108;27;20590;-68
2022/12/02 05:49:53;;;;;;;40.33;19.15;;;;;;;3.88;nan;101166.75;5151354;27;20099;-68
2022/12/02 05:52:24;;;;;;;40.13;18.75;;;;;;;3.92;nan;101175.88;5153110;27;20549;-68
2022/12/02 05:55:06;;;;;;;40.33;19.50;;;;;;;3.93;nan;101173.13;5149885;27;20015;-68
2022/12/02 05:57:31;;;;;;;45.28;20.58;;;;;;;3.87;nan;101165.94;5153507;27;20026;-68
2022/12/02 06:00:06;;;;;;;48.67;20.85;;;;;;;3.98;nan;101176.06;5129988;27;20118;-68
2022/12/02 06:02:37;;;;;;;42.88;20.80;;;;;;;3.96;nan;101172.00;5151720;27;20046;-68
2022/12/02 06:05:19;;;;;;;42.22;19.65;;;;;;;3.98;nan;101181.28;5149414;27;20022;-68
2022/12/02 06:07:46;;;;;;;44.28;21.83;;;;;;;3.91;nan;101166.47;5153555;27;20014;-68
2022/12/02 06:10:25;;;;;;;49.30;23.20;;;;;;;4.00;nan;101181.13;5148250;27;20422;-68
2022/12/02 06:12:53;;;;;;;51.90;22.80;;;;;;;3.95;nan;101184.22;5128264;27;20069;-68
2022/12/02 06:15:18;;;;;;;46.80;21.95;;;;;;;3.92;nan;101176.69;5132307;27;20113;-68
2022/12/02 06:17:44;;;;;;;44.90;20.45;;;;;;;3.92;nan;101183.72;5152251;27;20094;-69
2022/12/02 06:20:19;;;;;;;37.40;19.10;;;;;;;3.98;nan;101190.88;5150127;27;20034;-68
2022/12/02 06:22:44;;;;;;;37.97;19.73;;;;;;;4.00;nan;101192.34;5152315;27;20019;-68
2022/12/02 06:25:25;;;;;;;44.05;19.08;;;;;;;4.03;nan;101199.03;5151517;27;20025;-68
2022/12/02 06:27:53;;;;;;;40.28;17.98;;;;;;;4.00;nan;101200.19;5155220;27;20023;-68
2022/12/02 06:30:18;;;;;;;34.80;17.15;;;;;;;3.96;nan;101191.03;5150541;27;20079;-68
2022/12/02 06:32:54;;;;;;;37.83;18.20;;;;;;;3.92;nan;101181.91;5154208;27;20038;-68
2022/12/02 06:35:29;;;;;;;40.78;17.95;;;;;;;3.94;nan;101185.16;5154665;27;20059;-68
2022/12/02 06:38:07;;;;;;;1999.90;517.63;;;;;;;4.12;nan;101184.19;5146957;27;20425;-68
2022/12/02 06:40:35;;;;;;;60.25;25.80;;;;;;;4.48;nan;101184.69;5150471;27;20091;-68
2022/12/02 06:43:10;;;;;;;44.97;22.10;;;;;;;4.36;nan;101171.16;5151544;27;20020;-69
2022/12/02 06:45:36;;;;;;;40.95;19.55;;;;;;;4.43;nan;101195.59;5151744;27;20101;-68
2022/12/02 06:48:03;;;;;;;34.75;17.58;;;;;;;4.41;nan;101204.56;5151945;27;20143;-68
2022/12/02 06:50:50;;;;;;;39.30;19.15;;;;;;;4.31;nan;101207.34;5150538;27;20038;-67
2022/12/02 06:53:48;;;;;;;93.30;43.33;;;;;;;4.22;nan;101209.13;5150038;27;20111;-68
2022/12/02 06:56:14;;;;;;;60.60;30.42;;;;;;;4.33;nan;101207.16;5146869;27;20536;-68
2022/12/02 06:58:45;;;;;;;42.43;20.40;;;;;;;4.36;nan;101204.25;5124684;27;20026;-68
2022/12/02 07:01:29;;;;;;;37.17;17.30;;;;;;;4.25;nan;101203.59;5154073;27;20278;-68
2022/12/02 07:04:05;;;;;;;33.88;17.10;;;;;;;4.17;nan;101210.63;5128359;27;20019;-68
2022/12/02 07:06:31;;;;;;;34.53;16.77;;;;;;;4.22;nan;101209.13;5130846;27;20022;-68
2022/12/02 07:09:00;;;;;;;34.85;17.35;;;;;;;4.20;nan;101210.28;5153964;27;20088;-68
2022/12/02 07:11:50;;;;;;;39.30;16.48;;;;;;;4.24;nan;101216.81;5150149;27;20023;-68
2022/12/02 07:14:37;;;;;;;33.30;15.02;;;;;;;4.19;nan;101214.69;5150706;27;20043;-69
2022/12/02 07:17:23;;;;;;;30.92;14.98;;;;;;;4.18;nan;101210.44;5122184;27;20039;-69
2022/12/02 07:19:56;;;;;;;29.85;14.30;;;;;;;4.07;nan;101195.13;5126388;27;20495;-68
2022/12/02 07:22:24;;;;;;;29.58;14.73;;;;;;;4.05;nan;101203.09;5151116;27;20023;-68
2022/12/02 07:25:07;;;;;;;28.90;14.32;;;;;;;4.17;nan;101215.81;5151517;27;20111;-69
2022/12/02 07:27:36;;;;;;;30.17;14.50;;;;;;;4.10;nan;101210.44;5149517;27;20061;-69
2022/12/02 07:30:02;;;;;;;33.30;15.13;;;;;;;4.16;nan;101222.00;5153455;27;20019;-69
2022/12/02 07:32:28;;;;;;;31.15;14.90;;;;;;;4.04;nan;101206.66;5150419;27;20030;-68
2022/12/02 07:34:53;;;;;;;31.85;15.57;;;;;;;4.03;nan;101201.63;5148976;27;20105;-68
2022/12/02 07:37:19;;;;;;;34.75;15.75;;;;;;;4.03;nan;101206.84;5132043;27;20023;-69
2022/12/02 07:39:44;;;;;;;30.52;14.63;;;;;;;4.11;nan;101221.69;5152285;27;20030;-68
2022/12/02 07:42:10;;;;;;;35.38;16.40;;;;;;;4.04;nan;101211.88;5130499;27;20490;-68
2022/12/02 07:44:35;;;;;;;32.88;16.00;;;;;;;4.10;nan;101222.66;5151781;27;20080;-68
2022/12/02 07:47:01;;;;;;;34.20;16.17;;;;;;;4.12;nan;101218.91;5129969;27;20460;-68
2022/12/02 07:49:26;;;;;;;33.63;16.00;;;;;;;4.10;nan;101212.25;5153524;27;20031;-68
2022/12/02 07:51:52;;;;;;;34.10;16.30;;;;;;;4.16;nan;101208.97;5150758;27;20436;-68
2022/12/02 07:54:17;;;;;;;33.08;16.13;;;;;;;4.06;nan;101198.69;5153042;27;20166;-68
2022/12/02 07:56:43;;;;;;;33.50;16.60;;;;;;;4.17;nan;101215.81;5147887;27;20026;-68
2022/12/02 07:59:08;;;;;;;36.78;15.52;;;;;;;4.15;nan;101215.97;5151870;27;20411;-69
2022/12/02 08:01:34;;;;;;;37.30;16.55;;;;;;;4.20;nan;101229.34;5152713;27;20025;-68
2022/12/02 08:03:59;;;;;;;33.47;15.35;;;;;;;4.13;nan;101217.94;5129224;27;20019;-68
2022/12/02 08:06:25;;;;;;;33.35;15.90;;;;;;;3.89;nan;101179.63;5147991;27;20082;-68
2022/12/02 08:08:50;;;;;;;35.75;16.25;;;;;;;4.18;nan;101220.84;5149162;27;20456;-68
2022/12/02 08:11:15;;;;;;;34.53;15.82;;;;;;;4.22;nan;101229.19;5148645;27;20480;-67
2022/12/02 08:13:41;;;;;;;34.67;16.17;;;;;;;4.19;nan;101226.88;5126241;27;20099;-68
2022/12/02 08:16:07;;;;;;;33.75;16.10;;;;;;;4.15;nan;101209.97;5149447;27;20046;-68
2022/12/02 08:18:33;;;;;;;33.55;16.13;;;;;;;4.13;nan;101211.91;5148963;27;20499;-68
2022/12/02 08:20:58;;;;;;;35.95;15.82;;;;;;;4.18;nan;101222.66;5152034;27;20026;-68
2022/12/02 08:23:24;;;;;;;32.28;14.73;;;;;;;4.26;nan;101228.69;5149717;27;20022;-70
2022/12/02 08:25:49;;;;;;;34.53;15.60;;;;;;;4.30;nan;101234.38;5151839;27;20532;-68
2022/12/02 08:28:14;;;;;;;36.85;17.23;;;;;;;4.25;nan;101229.66;5145706;27;20045;-68
2022/12/02 08:30:40;;;;;;;39.40;18.27;;;;;;;4.25;nan;101219.22;5127932;27;20061;-68
2022/12/02 08:33:05;;;;;;;37.03;16.25;;;;;;;4.32;nan;101229.81;5149468;27;20091;-69
2022/12/02 08:35:31;;;;;;;33.85;15.05;;;;;;;4.30;nan;101228.38;5148365;27;20031;-68
2022/12/02 08:37:56;;;;;;;38.85;15.65;;;;;;;4.36;nan;101238.16;5149582;27;20421;-69
2022/12/02 08:40:21;;;;;;;31.75;15.65;;;;;;;4.31;nan;101224.75;5150897;27;20030;-68
2022/12/02 08:42:47;;;;;;;36.20;16.30;;;;;;;4.35;nan;101236.50;5131818;27;20018;-68
2022/12/02 08:45:12;;;;;;;33.28;16.30;;;;;;;4.45;nan;101244.97;5149629;27;20027;-69
2022/12/02 08:47:37;;;;;;;34.30;15.95;;;;;;;4.41;nan;101228.03;5149584;27;20055;-68
2022/12/02 08:50:04;;;;;;;32.97;15.10;;;;;;;4.51;nan;101238.31;5148743;27;20031;-69
2022/12/02 08:52:29;;;;;;;36.40;16.08;;;;;;;4.52;nan;101234.69;5148730;27;20070;-68
2022/12/02 08:54:57;;;;;;;34.95;15.98;;;;;;;4.33;nan;101192.34;5150702;27;20021;-68
2022/12/02 08:57:22;;;;;;;37.45;17.58;;;;;;;4.46;nan;101220.53;5131779;27;20027;-69
2022/12/02 08:59:48;;;;;;;38.97;17.17;;;;;;;4.60;nan;101237.31;5146466;27;20403;-68
2022/12/02 09:02:13;;;;;;;41.35;18.00;;;;;;;4.58;nan;101245.31;5148249;27;20037;-68
2022/12/02 09:04:38;;;;;;;38.15;17.80;;;;;;;4.56;nan;101228.19;5128427;27;20019;-68
2022/12/02 09:07:04;;;;;;;36.30;16.35;;;;;;;4.61;nan;101244.16;5148759;27;20122;-68
2022/12/02 09:09:30;;;;;;;38.33;17.77;;;;;;;4.66;nan;101241.88;5127575;27;20708;-69
2022/12/02 09:11:55;;;;;;;41.53;17.00;;;;;;;4.57;nan;101214.97;5147460;27;20026;-69
2022/12/02 09:14:21;;;;;;;40.35;18.00;;;;;;;4.66;nan;101234.84;5149241;27;20100;-67
2022/12/02 09:16:47;;;;;;;37.35;17.33;;;;;;;4.72;nan;101237.78;5150844;27;20023;-69
2022/12/02 09:19:13;;;;;;;37.17;17.05;;;;;;;4.77;nan;101238.13;5146600;27;20075;-68
2022/12/02 09:21:38;;;;;;;33.95;16.67;;;;;;;4.75;nan;101225.22;5132461;27;20487;-69
2022/12/02 09:24:05;;;;;;;38.33;17.98;;;;;;;4.83;nan;101238.25;5148049;27;20034;-69
2022/12/02 09:26:30;;;;;;;35.70;17.35;;;;;;;4.85;nan;101236.28;5150277;27;20085;-69
2022/12/02 09:28:55;;;;;;;37.50;17.23;;;;;;;4.85;nan;101228.47;5148761;27;20480;-69
2022/12/02 09:31:21;;;;;;;37.25;17.92;;;;;;;4.86;nan;101224.03;5151723;27;20096;-69
2022/12/02 09:33:46;;;;;;;31.55;15.25;;;;;;;4.86;nan;101218.81;5147549;27;20015;-69
2022/12/02 09:36:12;;;;;;;26.77;14.75;;;;;;;4.95;nan;101230.06;5130661;27;20057;-69
2022/12/02 09:38:37;;;;;;;32.13;16.02;;;;;;;4.87;nan;101216.06;5148728;27;20054;-68
2022/12/02 09:41:03;;;;;;;31.88;15.90;;;;;;;5.02;nan;101225.81;5148905;27;20083;-68
2022/12/02 09:43:29;;;;;;;36.47;17.90;;;;;;;5.14;nan;101224.47;5146509;27;20447;-68
2022/12/02 09:45:55;;;;;;;58.90;27.55;;;;;;;5.25;nan;101215.47;5151079;27;20014;-68
2022/12/02 09:48:21;;;;;;;37.50;17.17;;;;;;;5.36;nan;101222.91;5146250;27;20018;-68
2022/12/02 09:50:46;;;;;;;38.03;17.90;;;;;;;5.54;nan;101220.06;5150572;27;20027;-68
2022/12/02 09:53:14;;;;;;;34.63;16.08;;;;;;;5.69;nan;101220.94;5131978;27;20034;-68
2022/12/02 09:55:40;;;;;;;33.70;15.65;;;;;;;5.80;nan;101227.59;5148199;27;20019;-69
2022/12/02 09:58:17;;;;;;;37.30;17.15;;;;;;;5.82;nan;101209.09;5151355;27;20029;-69
2022/12/02 10:00:44;;;;;;;31.65;15.95;;;;;;;5.83;nan;101213.34;5148625;27;20424;-68
2022/12/02 10:03:12;;;;;;;32.33;16.30;;;;;;;5.83;nan;101211.53;5147833;27;20053;-68
2022/12/02 10:05:37;;;;;;;33.75;16.60;;;;;;;5.78;nan;101211.25;5131696;27;20084;-68
2022/12/02 10:08:06;;;;;;;31.40;15.63;;;;;;;5.70;nan;101214.75;5147678;27;20819;-68
2022/12/02 10:10:41;;;;;;;33.47;16.50;;;;;;;5.60;nan;101214.13;5147297;27;20122;-69
2022/12/02 10:13:18;;;;;;;34.60;16.17;;;;;;;5.55;nan;101219.06;5145276;27;20050;-68
2022/12/02 10:15:44;;;;;;;31.80;16.13;;;;;;;5.58;nan;101220.50;5130789;27;20015;-69
2022/12/02 10:18:16;;;;;;;30.98;14.88;;;;;;;5.59;nan;101216.94;5148317;27;20098;-69
2022/12/02 10:20:42;;;;;;;30.55;15.07;;;;;;;5.58;nan;101218.72;5150361;27;20464;-69
2022/12/02 10:23:17;;;;;;;31.02;14.57;;;;;;;5.56;nan;101210.25;5124908;27;20106;-69
2022/12/02 10:26:04;;;;;;;30.75;15.50;;;;;;;5.61;nan;101214.97;5144927;27;20022;-69
2022/12/02 10:28:33;;;;;;;31.70;15.45;;;;;;;5.55;nan;101203.38;5129802;27;20041;-69
2022/12/02 10:31:07;;;;;;;32.13;15.80;;;;;;;5.63;nan;101211.19;5141903;27;20106;-69
2022/12/02 10:33:36;;;;;;;30.75;15.95;;;;;;;5.63;nan;101211.19;5147144;27;20030;-69
2022/12/02 10:36:02;;;;;;;33.17;16.38;;;;;;;5.58;nan;101200.44;5152102;27;20021;-68
2022/12/02 10:38:29;;;;;;;34.95;15.63;;;;;;;5.66;nan;101210.84;5148008;27;20040;-68
2022/12/02 10:41:13;;;;;;;35.47;16.65;;;;;;;5.65;nan;101205.78;5150432;27;20023;-68
2022/12/02 10:43:39;;;;;;;31.20;15.75;;;;;;;5.65;nan;101200.56;5147325;27;20040;-69
2022/12/02 10:46:04;;;;;;;34.05;16.83;;;;;;;5.63;nan;101195.50;5133634;27;20551;-68
2022/12/02 10:48:30;;;;;;;31.15;16.02;;;;;;;5.58;nan;101190.00;5152611;27;20114;-69
2022/12/02 10:50:55;;;;;;;33.92;16.50;;;;;;;5.67;nan;101193.34;5132804;27;20376;-68
2022/12/02 10:53:25;;;;;;;35.80;16.50;;;;;;;5.70;nan;101193.84;5153116;27;20027;-68
2022/12/02 10:55:51;;;;;;;30.65;15.88;;;;;;;5.73;nan;101197.91;5154688;27;20596;-68
2022/12/02 10:58:31;;;;;;;28.17;15.35;;;;;;;5.76;nan;101195.75;5152951;27;20019;-69
2022/12/02 11:00:57;;;;;;;31.70;15.93;;;;;;;5.80;nan;101187.56;5153109;27;20018;-69
2022/12/02 11:03:24;;;;;;;32.45;15.88;;;;;;;5.80;nan;101187.56;5148232;27;20471;-68
2022/12/02 11:05:50;;;;;;;33.00;16.58;;;;;;;5.84;nan;101199.28;5150751;27;20033;-68
2022/12/02 11:08:15;;;;;;;40.72;16.95;;;;;;;5.88;nan;101190.13;5130566;27;20023;-69
2022/12/02 11:10:43;;;;;;;33.95;17.15;;;;;;;5.87;nan;101183.28;5150848;27;20027;-68
2022/12/02 11:13:11;;;;;;;37.80;16.65;;;;;;;5.94;nan;101192.88;5144477;27;20479;-69
2022/12/02 11:15:47;;;;;;;35.42;16.25;;;;;;;5.96;nan;101190.91;5130582;27;20125;-68
2022/12/02 11:18:21;;;;;;;31.25;16.58;;;;;;;5.99;nan;101192.38;5151873;27;20021;-68
2022/12/02 11:20:47;;;;;;;35.08;17.27;;;;;;;5.96;nan;101187.47;5151070;27;20054;-68
2022/12/02 11:23:22;;;;;;;30.83;16.50;;;;;;;6.01;nan;101195.63;5151765;27;20409;-68
2022/12/02 11:25:47;;;;;;;29.20;13.68;;;;;;;6.02;nan;101189.41;5148390;27;20022;-69
2022/12/02 11:28:28;;;;;;;29.63;14.90;;;;;;;6.07;nan;101191.47;5131666;27;20029;-68
2022/12/02 11:31:12;;;;;;;27.40;14.57;;;;;;;6.11;nan;101195.38;5150105;27;20051;-68
2022/12/02 11:33:47;;;;;;;28.35;14.20;;;;;;;6.11;nan;101190.16;5151005;27;20053;-69
2022/12/02 11:36:16;;;;;;;30.00;14.95;;;;;;;6.10;nan;101186.69;5129690;27;20101;-68
2022/12/02 11:38:55;;;;;;;30.08;14.27;;;;;;;6.11;nan;101182.31;5150373;27;20195;-68